Flight Track Log - Related Links

Times and Time Zones

All times are in EDT time to prevent confusion due to time zone crossing. See the SKW5315 flight status page for this flight to view local times or setup timezone preferences in your user account.

Time Position Orientation Groundspeed Altitude Reporting Facility
EDT Latitude Longitude Course Direction KTS MPH feet Rate Location/Type
Tue 12:38:34 PM 41.6017 -109.0969 79° East 146 168 7,800  Level Denver Center
Tue 12:39:26 PM 41.6292 -109.0819 22° Northeast 184 212 9,000 1,158 Climbing Salt Lake Center
Tue 12:40:00 PM 41.5232 -108.8715 90° East  Level Estimated
Tue 12:40:28 PM 41.6083 -109.0178 113° Southeast 197 227 10,000  Level Salt Lake Center
Tue 12:41:00 PM 41.4875 -108.7748 79° East  Level Estimated
Tue 12:41:30 PM 41.6014 -108.9214 95° East 231 266 11,400  Level Salt Lake Center
Tue 12:42:00 PM 41.4518 -108.6783 79° East  Level Estimated
Tue 12:42:31 PM 41.6144 -108.8403 78° East 235 270 13,100  Level Salt Lake Center
Tue 12:43:00 PM 41.4160 -108.5818 79° East  Level Estimated
Tue 12:43:33 PM 41.6242 -108.7442 82° East 234 269 14,600  Level Salt Lake Center
Tue 12:44:35 PM 41.6344 -108.6597 81° East 238 274 15,900 1,258 Climbing Salt Lake Center
Tue 12:45:37 PM 41.6447 -108.5753 81° East 240 276 17,200 1,220 Climbing Salt Lake Center
Tue 12:46:38 PM 41.6547 -108.4756 82° East 242 278 18,400 1,073 Climbing Salt Lake Center
Tue 12:47:40 PM 41.6642 -108.3867 82° East 250 288 19,400 1,016 Climbing Salt Lake Center
Tue 12:48:42 PM 41.6767 -108.2808 81° East 258 297 20,500 1,016 Climbing Salt Lake Center
Tue 12:49:44 PM 41.6881 -108.1886 81° East 263 303 21,500 1,024 Climbing Salt Lake Center
Tue 12:50:45 PM 41.7033 -108.0822 79° East 261 300 22,600 927 Climbing Salt Lake Center
Tue 12:51:47 PM 41.7156 -107.9928 80° East 255 293 23,400 774 Climbing Salt Lake Center
Tue 12:52:49 PM 41.7239 -107.8836 84° East 263 303 24,200 726 Climbing Salt Lake Center
Tue 12:53:51 PM 41.7331 -107.7911 82° East 264 304 24,900 390 Climbing Salt Lake Center
Tue 12:54:52 PM 41.7408 -107.6944 84° East 270 311 25,000 79 Climbing Salt Lake Center
Tue 12:55:07 PM 41.7453 -107.6589 80° East 278 320 25,000  Level Denver Center
Tue 12:56:09 PM 41.7528 -107.5544 84° East 291 335 25,000  Level Denver Center
Tue 12:57:11 PM 41.7325 -107.4389 103° East 287 330 25,000  Level Denver Center
Tue 12:58:13 PM 41.7106 -107.3414 107° East 287 330 25,000  Level Denver Center
Tue 12:59:15 PM 41.6833 -107.2281 108° East 286 329 25,000  Level Denver Center
Tue 01:00:17 PM 41.6589 -107.1308 109° East 287 330 25,000  Level Denver Center
Tue 01:01:19 PM 41.6328 -107.0169 107° East 288 331 25,000  Level Denver Center
Tue 01:02:21 PM 41.6103 -106.9194 107° East 286 329 25,000  Level Denver Center
Tue 01:03:23 PM 41.5858 -106.8056 106° East 285 328 25,000  Level Denver Center
Tue 01:04:25 PM 41.5658 -106.7064 105° East 288 331 25,000  Level Denver Center
Tue 01:05:27 PM 41.5400 -106.5939 107° East 286 329 25,000  Level Denver Center
Tue 01:06:29 PM 41.5194 -106.5017 107° East 284 327 25,000  Level Denver Center
Tue 01:07:31 PM 41.4942 -106.3900 107° East 283 326 25,000  Level Denver Center
Tue 01:08:33 PM 41.4717 -106.2933 107° East 285 328 25,000  Level Denver Center
Tue 01:09:35 PM 41.4467 -106.1808 106° East 285 328 25,000  Level Denver Center
Tue 01:10:37 PM 41.4225 -106.0844 108° East 287 330 25,000  Level Denver Center
Tue 01:11:39 PM 41.3969 -105.9728 107° East 285 328 25,000  Level Denver Center
Tue 01:12:42 PM 41.3764 -105.8786 106° East 280 322 25,000  Level Denver Center
Tue 01:13:44 PM 41.3481 -105.7667 109° East 284 327 25,000 -242 Level Denver Center
Tue 01:14:46 PM 41.3183 -105.6761 114° Southeast 283 326 24,500 -1,161 Descending Denver Center
Tue 01:15:48 PM 41.2583 -105.5917 133° Southeast 283 326 22,600 -1,742 Descending Denver Center
Tue 01:16:50 PM 41.2031 -105.5239 137° Southeast 283 326 20,900 -1,790 Descending Denver Center
Tue 01:17:52 PM 41.1400 -105.4431 136° Southeast 283 326 18,900 -1,742 Descending Denver Center
Tue 01:18:54 PM 41.0858 -105.3719 135° Southeast 286 329 17,300 -1,742 Descending Denver Center
Tue 01:19:56 PM 41.0247 -105.2864 133° Southeast 285 328 15,300 -1,790 Descending Denver Center
Tue 01:20:58 PM 40.9753 -105.2158 133° Southeast 281 323 13,600 -1,113 Descending Denver Center
Tue 01:22:00 PM 40.9189 -105.1358 133° Southeast 274 315 13,000 -290 Descending Denver Center
Tue 01:23:02 PM 40.8714 -105.0667 132° Southeast 270 311 13,000  Level Denver Center
Tue 01:24:04 PM 40.8253 -104.9986 132° Southeast 266 306 13,000  Level Denver Center
Tue 01:25:06 PM 40.7650 -104.9361 142° Southeast 259 298 13,000  Level Denver Center
Tue 01:26:08 PM 40.6964 -104.9017 159° South 259 298 13,000  Level Denver Center
Tue 01:27:11 PM 40.6258 -104.8644 158° South 256 295 13,000  Level Denver Center
Tue 01:28:13 PM 40.5583 -104.8303 159° South 259 298 13,000 -194 Level Denver Center
Tue 01:29:15 PM 40.4819 -104.8244 177° South 256 295 12,600 -677 Descending Denver Center
Tue 01:30:17 PM 40.4053 -104.8222 179° South 272 313 11,600 -774 Descending Denver Center
Tue 01:31:19 PM 40.3214 -104.8192 178° South 279 321 11,000 -290 Descending Denver Center
Tue 01:32:21 PM 40.2486 -104.8164 178° South 265 305 11,000  Level Denver Center
Tue 01:33:23 PM 40.1797 -104.8136 178° South 251 289 11,000  Level Denver Center
Tue 01:34:25 PM 40.1081 -104.8117 179° South 242 278 11,000  Level Denver Center
Tue 01:35:27 PM 40.0422 -104.8103 179° South 238 274 11,000  Level Denver Center
Tue 01:36:29 PM 39.9717 -104.8094 179° South 236 272 11,000  Level Denver Center
Tue 01:37:31 PM 39.9067 -104.8094 180° South 235 270 11,000  Level Denver Center
Tue 01:38:33 PM 39.8364 -104.8097 180° South 236 272 11,000 -242 Level Denver Center
Tue 01:39:35 PM 39.7669 -104.8050 177° South 234 269 10,500 -1,065 Descending Denver Center
Tue 01:40:37 PM 39.7217 -104.7564 140° Southeast 237 273 8,800 -1,210 Descending Denver Center
Tue 01:41:39 PM 39.7436 -104.6747 71° East 225 259 8,000 -774 Descending Denver Center

Login

Don't have an account? Register now (free) for customized features, flight alerts, and more!